Terminal Aerodrome Forecast
Issued by NWS

Home | Current Version | Previous Version | Text Only | Print | Product List | Glossary On
Versions: 1 2 3 4 5 6 7 8 9 10 11 12 13 14 15 16 17 18 19 20 21 22 23 24 25 26 27 28 29 30 31 32 33 34
000
FTUS41 KRNK 251406 AAA
TAFBCB
TAF AMD
KBCB 251406Z 2514/2612 11004KT 5SM BR OVC007
     FM251500 10003KT P6SM OVC015
     FM251900 10003KT P6SM BKN035
     FM260200 12003KT P6SM OVC015
     FM260700 00000KT 5SM BR OVC006=

USA.gov is the U.S. government's official web portal to all federal, state and local government web resources and services.